Aérodrome :
LOGIN :

S'inscrire | Disclaimer

   EN    FR    IT 

 










Légende :    VFR   VFR Marginal   IFR   IFR Intensif   IFR Très Intensif
Visi : 
Plafond : 
>= 8 km
>= 3000ft
5 à 8 km
1000 à 3000 ft
1500m à 5 km
500 à 1000 ft
800 à 1500m
200 à 500 ft
< 800m
< 200 ft
Symboles :   Orages  Brouillard  Fortes neiges  Fortes précipitations  Vent > 20 kt
SIGMETs :   Divers  Orages  Givrage  Turbulence  Onde Orograph.  Cendres Volcan.







- Altitude de l'aérodrome : 120 ft
- Code IATA : MME
- Voir les cartes d'approche


EGNV - Durham Tees valley

DERNIER METAR :
  • 150650Z 28013KT 9999 FEW045 14/09 Q1021

METARs EXPIRÉS :
  • 150620Z 29012KT 9999 FEW040 14/10 Q1021
  • 150550Z 28011KT 9999 FEW045 14/11 Q1021
  • 150520Z 28013KT 9999 FEW015 SCT017 14/11 Q1020
  • 150450Z 28012KT 9999 FEW013 SCT017 15/13 Q1020

TAF TAF EGNV
Valide du 15 à 06h jusqu'au 15 à 15h UTC


150526Z 1506/1515 28012KT 9999 FEW015 SCT020
PROB30
TEMPO 1506/1508 7000 -RADZ
BECMG 1512/1515 02007KT
TEMPO 1512/1515 7000 RADZ
ATIS : +44 9012 018 111
Pas de NOTAMs connus pour ce terrain.



MET'MAP, la Météo Aéronautique d'un coup d'oeil ! - Copyright ORBIFLY Décembre 2007 - Disclaimer

ORBIFLY MET'MAP TEAM :

Programmation & Développement : Alexandra Zaïnal
Conception & Développement : Baudouin d'Aumeries
Co-Programmation & Développement : Marc-Olivier Méhu
Soutien technique & logistique : Manuel Goepfert

Contact : metmap@orbifly.com




SOURCES & CREDITS :

   NOAA